createdAt,value
2022-10-14T00:02:08.121Z,8.20
2022-10-14T00:04:38.172Z,8.20
2022-10-14T00:07:07.970Z,8.20
2022-10-14T00:09:42.017Z,8.10
2022-10-14T00:12:12.480Z,8.20
2022-10-14T00:14:44.580Z,8.10
2022-10-14T00:17:16.455Z,8.10
2022-10-14T00:19:44.273Z,8.10
2022-10-14T00:22:11.507Z,8.00
2022-10-14T00:24:38.558Z,8.00
2022-10-14T00:27:11.206Z,8.00
2022-10-14T00:29:40.818Z,8.00
2022-10-14T00:32:08.334Z,8.00
2022-10-14T00:34:38.366Z,8.00
2022-10-14T00:37:07.850Z,8.00
2022-10-14T00:39:37.047Z,8.00
2022-10-14T00:42:06.502Z,8.00
2022-10-14T00:44:36.086Z,8.00
2022-10-14T00:47:05.798Z,7.90
2022-10-14T00:49:40.915Z,8.00
2022-10-14T00:52:19.138Z,7.90
2022-10-14T00:54:58.226Z,7.90
2022-10-14T00:57:30.762Z,7.90
2022-10-14T01:00:08.319Z,7.80
2022-10-14T01:02:35.602Z,7.90
2022-10-14T01:05:05.178Z,7.90
2022-10-14T01:07:43.641Z,7.80
2022-10-14T01:10:43.817Z,7.80
2022-10-14T01:13:32.174Z,7.80
2022-10-14T01:16:11.238Z,7.80
2022-10-14T01:19:17.903Z,7.80
2022-10-14T01:22:26.797Z,7.80
2022-10-14T01:25:02.067Z,7.70
2022-10-14T01:27:55.998Z,7.70
2022-10-14T01:30:29.263Z,7.70
2022-10-14T01:33:12.911Z,7.70
2022-10-14T01:35:50.629Z,7.70
2022-10-14T01:38:27.394Z,7.70
2022-10-14T01:41:04.842Z,7.70
2022-10-14T01:43:38.346Z,7.70
2022-10-14T01:46:07.032Z,7.70
2022-10-14T01:48:40.489Z,7.80
2022-10-14T01:51:21.667Z,7.80
2022-10-14T01:53:57.276Z,7.80
2022-10-14T01:56:30.211Z,7.90
2022-10-14T01:58:59.406Z,7.80
2022-10-14T02:01:29.962Z,7.80
2022-10-14T02:03:59.647Z,7.90
2022-10-14T02:06:34.739Z,7.80
2022-10-14T02:09:14.199Z,7.80
2022-10-14T02:11:55.331Z,7.80
2022-10-14T02:14:44.994Z,7.80
2022-10-14T02:17:33.218Z,7.80
2022-10-14T02:20:13.668Z,7.80
2022-10-14T02:23:06.438Z,7.80
2022-10-14T02:25:40.109Z,7.70
2022-10-14T02:28:13.740Z,7.70
2022-10-14T02:30:52.073Z,7.70
2022-10-14T02:33:29.309Z,7.80
2022-10-14T02:36:01.226Z,7.80
2022-10-14T02:38:31.725Z,7.80
2022-10-14T02:41:03.006Z,7.80
2022-10-14T02:43:34.987Z,7.70
2022-10-14T02:46:08.731Z,7.70
2022-10-14T02:48:38.686Z,7.70
2022-10-14T02:51:08.153Z,7.70
2022-10-14T02:53:40.530Z,7.70
2022-10-14T02:56:14.213Z,7.60
2022-10-14T02:58:41.467Z,7.70
2022-10-14T03:01:08.826Z,7.70
2022-10-14T03:03:36.794Z,7.60
2022-10-14T03:06:06.462Z,7.60
2022-10-14T03:08:36.814Z,7.70
2022-10-14T03:11:08.835Z,7.70
2022-10-14T03:13:41.197Z,7.70
2022-10-14T03:16:11.195Z,7.70
2022-10-14T03:18:48.008Z,7.60
2022-10-14T03:21:25.349Z,7.60
2022-10-14T03:23:54.009Z,7.70
2022-10-14T03:26:31.267Z,7.70
2022-10-14T03:29:02.844Z,7.80
2022-10-14T03:31:48.009Z,7.70
2022-10-14T03:34:27.011Z,7.80
2022-10-14T03:37:06.209Z,7.90
2022-10-14T03:39:42.754Z,7.90
2022-10-14T03:42:12.966Z,8.00
2022-10-14T03:44:46.190Z,8.00
2022-10-14T03:47:22.993Z,8.00
2022-10-14T03:49:50.218Z,8.00
2022-10-14T03:52:24.234Z,8.00
2022-10-14T03:55:07.813Z,8.00
2022-10-14T03:57:35.774Z,8.00
2022-10-14T04:00:09.215Z,8.00
2022-10-14T04:02:42.577Z,7.90
2022-10-14T04:05:26.257Z,7.90
2022-10-14T04:07:53.725Z,8.00
2022-10-14T04:10:21.686Z,8.00
2022-10-14T04:12:55.865Z,8.00
2022-10-14T04:15:32.350Z,8.00
2022-10-14T04:18:11.938Z,8.00
2022-10-14T04:20:42.933Z,8.00
2022-10-14T04:23:16.424Z,8.00
2022-10-14T04:25:51.002Z,8.00
2022-10-14T04:28:21.534Z,8.00
2022-10-14T04:30:56.946Z,7.80
2022-10-14T04:33:28.944Z,7.80
2022-10-14T04:36:07.950Z,7.80
2022-10-14T04:38:37.773Z,7.70
2022-10-14T04:41:11.166Z,7.80
2022-10-14T04:43:44.201Z,7.70
2022-10-14T04:46:37.461Z,7.70
2022-10-14T04:49:05.285Z,7.70
2022-10-14T04:51:40.743Z,7.70
2022-10-14T04:54:42.681Z,7.60
2022-10-14T04:57:13.195Z,7.60
2022-10-14T04:59:44.770Z,7.60
2022-10-14T05:02:18.976Z,7.60
2022-10-14T05:04:58.250Z,7.60
2022-10-14T05:07:27.510Z,7.50
2022-10-14T05:10:04.614Z,7.60
2022-10-14T05:12:41.118Z,7.60
2022-10-14T05:15:09.643Z,7.60
2022-10-14T05:17:52.878Z,7.60
2022-10-14T05:20:29.146Z,7.60
2022-10-14T05:22:58.071Z,7.60
2022-10-14T05:25:32.716Z,7.60
2022-10-14T05:28:05.005Z,7.60
2022-10-14T05:30:35.200Z,7.60
2022-10-14T05:33:08.124Z,7.70
2022-10-14T05:35:58.076Z,7.80
2022-10-14T05:38:27.338Z,7.80
2022-10-14T05:40:59.364Z,7.90
2022-10-14T05:43:32.448Z,7.90
2022-10-14T05:46:07.159Z,7.90
2022-10-14T05:48:43.231Z,8.00
2022-10-14T05:51:15.746Z,8.00
2022-10-14T05:53:48.530Z,8.10
2022-10-14T05:56:21.910Z,8.10
2022-10-14T05:58:53.666Z,8.10
2022-10-14T06:01:26.503Z,8.20
2022-10-14T06:03:56.012Z,8.30
2022-10-14T06:06:26.691Z,8.30
2022-10-14T06:09:00.979Z,8.40
2022-10-14T06:11:30.186Z,8.40
2022-10-14T06:14:00.050Z,8.50
2022-10-14T06:16:27.688Z,8.50
2022-10-14T06:18:56.868Z,8.60
2022-10-14T06:21:27.717Z,8.60
2022-10-14T06:23:57.299Z,8.60
2022-10-14T06:26:29.009Z,8.70
2022-10-14T06:29:01.795Z,8.70
2022-10-14T06:31:32.285Z,8.80
2022-10-14T06:34:00.493Z,8.80
2022-10-14T06:36:29.950Z,9.00
2022-10-14T06:38:59.543Z,9.00
2022-10-14T06:41:29.196Z,9.00
2022-10-14T06:43:58.389Z,9.10
2022-10-14T06:46:28.119Z,9.20
2022-10-14T06:49:00.708Z,9.20
2022-10-14T06:51:28.031Z,9.30
2022-10-14T06:53:57.432Z,9.40
2022-10-14T06:56:26.755Z,9.50
2022-10-14T06:58:59.515Z,9.50
2022-10-14T07:01:29.350Z,9.60
2022-10-14T07:04:03.664Z,9.60
2022-10-14T07:06:38.310Z,9.70
2022-10-14T07:09:10.828Z,9.80
2022-10-14T07:11:43.017Z,9.80
2022-10-14T07:14:12.722Z,9.90
2022-10-14T07:16:45.619Z,9.90
2022-10-14T07:19:13.854Z,10.00
2022-10-14T07:21:42.826Z,10.00
2022-10-14T07:24:10.313Z,10.00
2022-10-14T07:26:37.522Z,10.10
2022-10-14T07:29:05.614Z,10.10
2022-10-14T07:31:33.121Z,10.20
2022-10-14T07:34:05.637Z,10.20
2022-10-14T07:36:35.320Z,10.20
2022-10-14T07:39:06.022Z,10.30
2022-10-14T07:41:35.758Z,10.40
2022-10-14T07:44:06.464Z,10.50
2022-10-14T07:46:38.689Z,10.70
2022-10-14T07:49:15.628Z,10.80
2022-10-14T07:51:50.178Z,11.00
2022-10-14T07:54:22.481Z,11.10
2022-10-14T07:56:52.774Z,11.20
2022-10-14T07:59:21.463Z,11.30
2022-10-14T08:01:52.740Z,11.40
2022-10-14T08:04:22.835Z,11.60
2022-10-14T08:06:53.033Z,11.60
2022-10-14T08:09:22.727Z,11.70
2022-10-14T08:11:49.937Z,11.70
2022-10-14T08:14:17.046Z,11.80
2022-10-14T08:16:49.879Z,11.90
2022-10-14T08:19:24.375Z,11.90
2022-10-14T08:21:53.273Z,11.90
2022-10-14T08:24:22.875Z,12.00
2022-10-14T08:26:53.575Z,12.10
2022-10-14T08:29:22.605Z,12.30
2022-10-14T08:31:55.522Z,12.40
2022-10-14T08:34:24.974Z,12.50
2022-10-14T08:36:52.255Z,12.70
2022-10-14T08:39:20.036Z,12.70
2022-10-14T08:41:57.641Z,12.90
2022-10-14T08:44:39.558Z,12.90
2022-10-14T08:47:17.420Z,13.00
2022-10-14T08:50:05.510Z,13.00
2022-10-14T08:52:55.489Z,13.10
2022-10-14T08:55:32.649Z,13.10
2022-10-14T09:01:03.999Z,13.10
2022-10-14T09:03:36.446Z,13.10
2022-10-14T09:06:11.800Z,13.10
2022-10-14T09:08:45.681Z,13.10
2022-10-14T09:11:21.751Z,13.10
2022-10-14T09:13:57.814Z,13.10
2022-10-14T09:16:31.605Z,13.10
2022-10-14T09:19:03.512Z,13.20
2022-10-14T09:21:53.917Z,13.30
2022-10-14T09:24:37.707Z,13.30
2022-10-14T09:27:08.861Z,13.40
2022-10-14T09:29:48.226Z,13.40
2022-10-14T09:32:38.502Z,13.40
2022-10-14T09:35:43.784Z,13.50
2022-10-14T09:38:12.673Z,13.60
2022-10-14T09:40:54.363Z,13.70
2022-10-14T09:43:24.098Z,13.80
2022-10-14T09:46:11.075Z,13.90
2022-10-14T09:48:46.313Z,14.00
2022-10-14T09:51:28.605Z,14.00
2022-10-14T09:54:03.849Z,14.00
2022-10-14T09:56:38.980Z,14.10
2022-10-14T09:59:17.708Z,14.20
2022-10-14T10:01:53.468Z,14.30
2022-10-14T10:04:50.103Z,14.30
2022-10-14T10:07:31.188Z,14.40
2022-10-14T10:10:16.135Z,14.40
2022-10-14T10:12:48.401Z,14.50
2022-10-14T10:15:21.185Z,14.60
2022-10-14T10:17:51.380Z,14.60
2022-10-14T10:20:28.123Z,14.70
2022-10-14T10:23:20.803Z,14.70
2022-10-14T10:25:53.718Z,14.80
2022-10-14T10:28:32.038Z,14.90
2022-10-14T10:31:21.262Z,14.90
2022-10-14T10:33:54.082Z,15.10
2022-10-14T10:36:50.758Z,15.20
2022-10-14T10:39:41.112Z,15.20
2022-10-14T10:42:28.147Z,15.30
2022-10-14T10:45:06.936Z,15.40
2022-10-14T10:47:48.624Z,15.50
2022-10-14T10:50:33.452Z,15.50
2022-10-14T10:53:09.008Z,15.60
2022-10-14T10:56:19.065Z,15.60
2022-10-14T10:58:58.843Z,15.70
2022-10-14T11:01:37.708Z,15.80
2022-10-14T11:04:33.939Z,15.90
2022-10-14T11:07:27.031Z,16.00
2022-10-14T11:10:40.892Z,16.10
2022-10-14T11:13:41.922Z,16.30
2022-10-14T11:16:47.206Z,16.50
2022-10-14T11:19:27.491Z,16.60
2022-10-14T11:22:01.334Z,16.60
2022-10-14T11:24:54.513Z,16.60
2022-10-14T11:27:46.706Z,16.60
2022-10-14T11:30:19.184Z,16.50
2022-10-14T11:32:59.159Z,16.50
2022-10-14T11:35:46.694Z,16.50
2022-10-14T11:38:31.188Z,16.50
2022-10-14T11:41:10.286Z,16.50
2022-10-14T11:43:40.129Z,16.40
2022-10-14T11:46:14.054Z,16.40
2022-10-14T11:49:05.490Z,16.30
2022-10-14T11:51:44.889Z,16.30
2022-10-14T11:54:18.803Z,16.30
2022-10-14T11:57:01.289Z,16.10
2022-10-14T12:00:04.410Z,16.10
2022-10-14T12:03:13.370Z,16.10
2022-10-14T12:05:59.499Z,16.10
2022-10-14T12:08:46.083Z,16.20
2022-10-14T12:11:26.418Z,16.30
2022-10-14T12:14:22.464Z,16.40
2022-10-14T12:16:50.800Z,16.60
2022-10-14T12:19:28.391Z,16.70
2022-10-14T12:22:17.428Z,16.70
2022-10-14T12:24:55.221Z,16.80
2022-10-14T12:27:28.530Z,16.80
2022-10-14T12:29:59.027Z,16.80
2022-10-14T12:32:34.300Z,16.80
2022-10-14T12:35:43.190Z,16.80
2022-10-14T12:38:15.086Z,16.80
2022-10-14T12:40:48.743Z,16.70
2022-10-14T12:43:23.598Z,16.70
2022-10-14T12:46:01.181Z,16.70
2022-10-14T12:48:33.870Z,16.60
2022-10-14T12:51:17.998Z,16.60
2022-10-14T12:54:15.602Z,16.50
2022-10-14T12:57:07.945Z,16.50
2022-10-14T12:59:39.576Z,16.50
2022-10-14T13:02:33.096Z,16.50
2022-10-14T13:05:24.520Z,16.60
2022-10-14T13:08:19.904Z,16.60
2022-10-14T13:10:52.502Z,16.70
2022-10-14T13:13:53.454Z,16.60
2022-10-14T13:16:26.446Z,16.60
2022-10-14T13:18:54.798Z,16.60
2022-10-14T13:21:52.742Z,16.60
2022-10-14T13:24:29.367Z,16.60
2022-10-14T13:27:22.805Z,16.60
2022-10-14T13:30:16.648Z,16.50
2022-10-14T13:33:00.587Z,16.50
2022-10-14T13:35:47.607Z,16.40
2022-10-14T13:38:19.915Z,16.40
2022-10-14T13:40:52.733Z,16.30
2022-10-14T13:43:40.629Z,16.20
2022-10-14T13:46:39.147Z,16.10
2022-10-14T13:52:08.459Z,16.00
2022-10-14T13:54:40.052Z,15.90
2022-10-14T14:00:44.445Z,15.90
2022-10-14T14:03:35.306Z,15.90
2022-10-14T14:06:12.451Z,16.00
2022-10-14T14:09:06.346Z,16.00
2022-10-14T14:11:39.053Z,16.10
2022-10-14T14:14:23.021Z,16.10
2022-10-14T14:16:58.928Z,16.10
2022-10-14T14:19:34.248Z,16.10
2022-10-14T14:22:24.348Z,16.00
2022-10-14T14:25:33.431Z,16.00
2022-10-14T14:28:02.185Z,16.00
2022-10-14T14:30:35.810Z,15.90
2022-10-14T14:33:16.722Z,15.90
2022-10-14T14:35:59.486Z,15.90
2022-10-14T14:38:37.470Z,15.90
2022-10-14T14:41:23.076Z,15.80
2022-10-14T14:44:25.189Z,15.80
2022-10-14T14:46:50.293Z,15.70
2022-10-14T14:49:35.418Z,15.70
2022-10-14T14:52:04.935Z,15.70
2022-10-14T14:54:34.330Z,15.60
2022-10-14T14:57:06.914Z,15.50
2022-10-14T14:59:36.166Z,15.50
2022-10-14T15:02:20.584Z,15.40
2022-10-14T15:05:10.666Z,15.40
2022-10-14T15:07:43.166Z,15.30
2022-10-14T15:10:31.576Z,15.30
2022-10-14T15:13:02.407Z,15.20
2022-10-14T15:15:38.483Z,15.10
2022-10-14T15:18:26.187Z,15.10
2022-10-14T15:21:19.484Z,15.00
2022-10-14T15:23:52.840Z,14.90
2022-10-14T15:26:28.583Z,14.80
2022-10-14T15:29:05.708Z,14.80
2022-10-14T15:31:39.375Z,14.70
2022-10-14T15:34:21.003Z,14.50
2022-10-14T15:36:52.553Z,14.50
2022-10-14T15:39:22.907Z,14.30
2022-10-14T15:41:52.749Z,14.30
2022-10-14T15:44:22.515Z,14.20
2022-10-14T15:47:11.256Z,14.10
2022-10-14T15:49:47.245Z,14.00
2022-10-14T15:52:16.105Z,13.90
2022-10-14T15:54:46.577Z,13.90
2022-10-14T15:57:17.343Z,13.90
2022-10-14T15:59:51.940Z,13.90
2022-10-14T16:02:35.332Z,13.80
2022-10-14T16:05:25.658Z,13.70
2022-10-14T16:07:56.464Z,13.60
2022-10-14T16:10:29.384Z,13.50
2022-10-14T16:12:59.646Z,13.50
2022-10-14T16:15:42.143Z,13.40
2022-10-14T16:18:11.543Z,13.30
2022-10-14T16:20:39.995Z,13.10
2022-10-14T16:23:17.699Z,13.10
2022-10-14T16:25:49.218Z,13.00
2022-10-14T16:28:18.794Z,13.00
2022-10-14T16:30:50.091Z,12.90
2022-10-14T16:33:23.159Z,12.90
2022-10-14T16:35:56.174Z,12.80
2022-10-14T16:38:25.667Z,12.80
2022-10-14T16:41:00.971Z,12.80
2022-10-14T16:43:29.315Z,12.80
2022-10-14T16:46:01.762Z,12.80
2022-10-14T16:48:29.708Z,12.70
2022-10-14T16:51:00.530Z,12.80
2022-10-14T16:53:46.122Z,12.80
2022-10-14T16:56:37.930Z,12.70
2022-10-14T16:59:10.287Z,12.70
2022-10-14T17:01:38.350Z,12.50
2022-10-14T17:04:19.549Z,12.40
2022-10-14T17:06:54.134Z,12.40
2022-10-14T17:12:06.910Z,12.30
2022-10-14T17:14:37.128Z,12.30
2022-10-14T17:17:10.640Z,12.30
2022-10-14T17:19:38.413Z,12.20
2022-10-14T17:22:05.762Z,12.10
2022-10-14T17:24:34.851Z,12.10
2022-10-14T17:27:12.445Z,12.00
2022-10-14T17:29:42.565Z,11.90
2022-10-14T17:32:11.791Z,11.90
2022-10-14T17:34:41.594Z,11.80
2022-10-14T17:39:43.359Z,11.90
2022-10-14T17:42:13.132Z,11.90
2022-10-14T17:44:43.836Z,11.90
2022-10-14T17:47:11.691Z,11.80
2022-10-14T17:49:38.819Z,11.80
2022-10-14T17:52:06.335Z,11.80
2022-10-14T17:54:38.380Z,11.70
2022-10-14T17:57:05.402Z,11.70
2022-10-14T17:59:32.514Z,11.70
2022-10-14T18:02:03.786Z,11.70
2022-10-14T18:04:32.739Z,11.70
2022-10-14T18:07:02.691Z,11.80
2022-10-14T18:09:30.072Z,11.70
2022-10-14T18:12:08.913Z,11.70
2022-10-14T18:14:40.704Z,11.70
2022-10-14T18:17:12.051Z,11.70
2022-10-14T18:19:41.379Z,11.70
2022-10-14T18:22:13.631Z,11.70
2022-10-14T18:24:43.978Z,11.70
2022-10-14T18:27:11.593Z,11.70
2022-10-14T18:29:43.542Z,11.60
2022-10-14T18:32:13.009Z,11.70
2022-10-14T18:34:40.072Z,11.70
2022-10-14T18:37:14.316Z,11.70
2022-10-14T18:39:44.686Z,11.70
2022-10-14T18:42:18.452Z,11.60
2022-10-14T18:44:48.690Z,11.70
2022-10-14T18:47:16.103Z,11.70
2022-10-14T18:49:46.177Z,11.70
2022-10-14T18:52:13.605Z,11.70
2022-10-14T18:54:45.669Z,11.70
2022-10-14T18:57:32.721Z,11.60
2022-10-14T19:00:03.253Z,11.50
2022-10-14T19:02:35.304Z,11.50
2022-10-14T19:05:07.227Z,11.40
2022-10-14T19:07:57.082Z,11.50
2022-10-14T19:10:29.273Z,11.40
2022-10-14T19:13:04.268Z,11.40
2022-10-14T19:15:45.227Z,11.30
2022-10-14T19:18:15.003Z,11.30
2022-10-14T19:20:45.544Z,11.30
2022-10-14T19:23:17.677Z,11.30
2022-10-14T19:25:47.458Z,11.20
2022-10-14T19:28:14.487Z,11.20
2022-10-14T19:30:43.873Z,11.10
2022-10-14T19:33:13.450Z,11.10
2022-10-14T19:35:40.560Z,11.10
2022-10-14T19:38:30.360Z,11.10
2022-10-14T19:41:05.332Z,11.00
2022-10-14T19:43:39.774Z,11.00
2022-10-14T19:46:08.955Z,11.00
2022-10-14T19:48:39.067Z,10.90
2022-10-14T19:51:33.621Z,10.90
2022-10-14T19:54:03.675Z,10.90
2022-10-14T19:56:33.504Z,10.90
2022-10-14T19:59:05.060Z,10.80
2022-10-14T20:01:32.529Z,10.90
2022-10-14T20:04:01.212Z,10.90
2022-10-14T20:06:32.787Z,10.80
2022-10-14T20:09:05.317Z,10.80
2022-10-14T20:11:35.964Z,10.80
2022-10-14T20:14:05.419Z,10.80
2022-10-14T20:16:37.267Z,10.70
2022-10-14T20:19:09.158Z,10.70
2022-10-14T20:21:41.481Z,10.70
2022-10-14T20:24:11.131Z,10.60
2022-10-14T20:26:43.109Z,10.60
2022-10-14T20:29:15.269Z,10.60
2022-10-14T20:31:45.053Z,10.60
2022-10-14T20:34:14.404Z,10.60
2022-10-14T20:36:43.717Z,10.70
2022-10-14T20:39:13.329Z,10.70
2022-10-14T20:41:42.644Z,10.60
2022-10-14T20:44:09.795Z,10.60
2022-10-14T20:46:41.634Z,10.60
2022-10-14T20:49:14.291Z,10.50
2022-10-14T20:51:43.896Z,10.50
2022-10-14T20:54:16.678Z,10.50
2022-10-14T20:56:48.716Z,10.50
2022-10-14T20:59:19.008Z,10.40
2022-10-14T21:01:48.569Z,10.30
2022-10-14T21:04:15.712Z,10.30
2022-10-14T21:06:50.607Z,10.40
2022-10-14T21:09:20.198Z,10.40
2022-10-14T21:11:47.488Z,10.30
2022-10-14T21:14:17.633Z,10.40
2022-10-14T21:16:44.902Z,10.30
2022-10-14T21:19:20.580Z,10.30
2022-10-14T21:21:52.590Z,10.20
2022-10-14T21:24:22.338Z,10.20
2022-10-14T21:26:55.177Z,10.20
2022-10-14T21:29:27.578Z,10.20
2022-10-14T21:31:54.832Z,10.20
2022-10-14T21:34:27.706Z,10.20
2022-10-14T21:36:57.328Z,10.20
2022-10-14T21:39:25.393Z,10.20
2022-10-14T21:41:54.977Z,10.30
2022-10-14T21:44:24.357Z,10.10
2022-10-14T21:46:51.969Z,10.10
2022-10-14T21:49:19.156Z,10.10
2022-10-14T21:51:51.326Z,10.00
2022-10-14T21:54:22.133Z,10.00
2022-10-14T21:56:51.754Z,9.90
2022-10-14T21:59:23.994Z,9.90
2022-10-14T22:01:58.906Z,9.90
2022-10-14T22:04:37.512Z,9.90
2022-10-14T22:07:06.642Z,9.90
2022-10-14T22:09:34.009Z,9.90
2022-10-14T22:12:03.403Z,9.90
2022-10-14T22:14:35.285Z,9.90
2022-10-14T22:17:07.844Z,9.90
2022-10-14T22:19:37.696Z,9.80
2022-10-14T22:22:07.394Z,9.70
2022-10-14T22:24:34.535Z,9.80
2022-10-14T22:27:06.504Z,9.90
2022-10-14T22:29:36.162Z,9.90
2022-10-14T22:32:05.601Z,10.00
2022-10-14T22:34:35.659Z,10.20
2022-10-14T22:37:05.011Z,10.20
2022-10-14T22:39:32.346Z,10.20
2022-10-14T22:42:02.338Z,10.20
2022-10-14T22:44:34.104Z,10.20
2022-10-14T22:47:03.687Z,10.10
2022-10-14T22:49:36.183Z,10.10
2022-10-14T22:52:03.722Z,10.10
2022-10-14T22:54:33.313Z,10.20
2022-10-14T22:57:02.790Z,10.20
2022-10-14T22:59:32.577Z,10.20
2022-10-14T23:02:01.811Z,10.20
2022-10-14T23:04:28.847Z,10.20
2022-10-14T23:06:59.852Z,10.20
2022-10-14T23:09:31.263Z,10.10
2022-10-14T23:11:59.021Z,10.10
2022-10-14T23:14:30.363Z,10.10
2022-10-14T23:17:02.723Z,10.00
2022-10-14T23:19:30.381Z,10.00
2022-10-14T23:21:57.449Z,10.00
2022-10-14T23:24:28.301Z,9.90
2022-10-14T23:26:55.613Z,9.90
2022-10-14T23:29:24.906Z,9.80
2022-10-14T23:31:58.114Z,9.90
2022-10-14T23:34:27.906Z,9.90
2022-10-14T23:36:59.648Z,9.90
2022-10-14T23:39:29.131Z,9.80
2022-10-14T23:42:01.275Z,9.80
2022-10-14T23:44:28.654Z,9.70
2022-10-14T23:46:58.221Z,9.80
2022-10-14T23:49:27.863Z,9.80
2022-10-14T23:51:55.609Z,9.80
2022-10-14T23:54:22.980Z,9.80
2022-10-14T23:56:52.646Z,9.70
2022-10-14T23:59:26.882Z,9.70
